AirNav   Air Wisconsin Airman Trainee
 
 861 users online  

H17 Buffalo Municipal Airport
Buffalo, Missouri, USA

GOING TO BUFFALO?


FAA INFORMATION EFFECTIVE 28 FEBRUARY 2019

Location

FAA Identifier: H17
Lat/Long: 37-39-14.7000N / 093-05-13.2000W
37-39.245000N / 093-05.220000W
37.6540833 / -93.0870000
(estimated)
Elevation: 1154 ft. / 352 m (estimated)
Variation: 04E (1985)
From city: 1 mile N of BUFFALO, MO
Time zone: UTC -6 (UTC -5 during Daylight Saving Time)
Zip code: 65622

Airport Operations

Airport use: Open to the public
Activation date: 12/1952
Control tower: no
ARTCC: KANSAS CITY CENTER
FSS: COLUMBIA FLIGHT SERVICE STATION
NOTAMs facility: COU (NOTAM-D service available)
Attendance: UNATNDD
Wind indicator: lighted
Segmented circle: yes
Lights: ACTVT LIRL RY 04/22 & PERIMETER LGTS - CTAF.
Beacon: white-green (lighted land airport)
Operates sunset to sunrise.

Airport Communications

CTAF: 122.9

Nearby radio navigation aids

VOR radial/distance  VOR name  Freq  Var
SGFr029/21.4SPRINGFIELD VORTAC116.9004E
SHYr225/32.6SUNSHINE VOR/DME108.4000E
DGDr344/39.1DOGWOOD VORTAC109.4001E

Airport Services

Parking: tiedowns
Bottled oxygen: NONE
Bulk oxygen: NONE

Runway Information

Runway 4/22

Dimensions: 3220 x 50 ft. / 981 x 15 m
WIDTH VARIANCE 50-52 FT.
Surface: asphalt, in good condition
Runway edge lights: low intensity
RUNWAY 4  RUNWAY 22
Latitude: 37-39.025667N37-39.463500N
Longitude: 093-05.408000W093-05.031667W
Elevation: 1152.0 ft.1148.0 ft.
Traffic pattern: leftleft
Displaced threshold: 272 ft.no
Markings: basic, in good conditionbasic, in good condition
Obstructions: 44 ft. tree, 310 ft. from runway, 75 ft. right of centerline, 2:1 slope to clear
RWY 04 +1-19 FT TREES, FENCES, 35-200 FT FM RWY END, L/R.
47 ft. tree, 270 ft. from runway, 115 ft. left of centerline, 1:1 slope to clear
RWY 22 +1-35 FT FENCES, TREES & BRUSH 0-200 FT FM RY END, L/R.

Helipad H1

Dimensions: 40 x 40 ft. / 12 x 12 m
Surface: asphalt, in good condition
Runway edge lights: PERI
5 LANDING DIRECTION LIGHTS EXTENDING NORTHEAST.
Traffic pattern: leftleft
Markings: , in good condition

Airport Ownership and Management from official FAA records

Ownership: Publicly-owned
Owner: BUFFALO, CITY OF
115 SOUTH MAPLE STREET, P.O. BOX 410
BUFFALO, MO 65622
Phone 417-345-2701
Manager: RICK BEHYMER
1803 WEST MILL
BUFFALO, MO 65622
Phone (816) 838-3888
ALT. PHONE 417-345-1120.

Airport Operational Statistics

Aircraft based on the field: 11
Single engine airplanes: 10
Multi engine airplanes: 1
    
Aircraft operations: avg 56/week *
75% local general aviation
25% transient general aviation
* for 12-month period ending 31 December 2017

Additional Remarks

ULTRALIGHT ACFT ON & INVOF ARPT.
WILDLIFE ON AND INVOF ARPT.
INSUF RY SAFETY AREA LENGTH BYD EACH RY END; FENCES, BRUSH, TREES.
APCH SLOPE 8 TO 1 TO HELIPAD FROM NORTHEAST; ARPT BEACON 260 FT SOUTH OF HELIPAD, 5 TO 1 APCH SLOPE.

Instrument Procedures

There are no published instrument procedures at H17.

Some nearby airports with instrument procedures:

M17 - Bolivar Municipal Airport (13 nm W)
KLBO - Floyd W Jones Lebanon Airport (21 nm E)
KOZS - Camdenton Memorial-Lake Regional Airport (27 nm NE)
3DW - Downtown Airport (27 nm S)
KSGF - Springfield-Branson National Airport (28 nm SW)
 
Loc | Ops | Rwys | IFR | FBO | Links
Com | Nav | Svcs | Stats | Notes

Kansas City Aviation Department
 
Area around H17 (Buffalo Municipal Airport)
 
Road maps at: MapQuest Bing Google
 
Aerial photo
WARNING: Photo may not be current or correct
Aerial photo of H17 (Buffalo Municipal Airport)
Do you have a better or more recent aerial photo of Buffalo Municipal Airport that you would like to share? If so, please send us your photo.

 
Sectional chart

 
Airport distance calculator
Flying to Buffalo Municipal Airport? Find the distance to fly.

From to H17

Sunrise and sunset
Times for 23-Mar-2019
 Local
(UTC-5)
 Zulu
(UTC)
Morning civil twilight06:4611:46
Sunrise07:1212:12
Sunset19:2600:26
Evening civil twilight19:5200:52

Current date and time
Zulu (UTC)  23-Mar-2019 22:32:15
Local (UTC-5)  23-Mar-2019 17:32:15
 
METAR
KLBO 
21nm E 
232215Z AUTO 13008KT 10SM -DZ CLR 13/02 A3014 RMK AO2 LTG DSNT SW
KOZS 
27nm NE 
232215Z AUTO 16008KT 10SM -RA OVC075 13/01 A3015 RMK AO2
KSGF 
29nm SW 
232152Z 12008KT 10SM BKN110 12/04 A3009 RMK AO2 RAE2053 SLP189 P0000 T01220039
KAIZ 
37nm NE 
232156Z AUTO 14007KT 100V160 10SM OVC080 16/02 A3013 RMK AO2 RAB26E44 SLP204 P0000 T01560022
TAF
KSGF 
29nm SW 
232219Z 2322/2418 12008KT P6SM -SHRA OVC080 TEMPO 2322/2401 4SM -SHRA OVC040 FM240100 15017G26KT 6SM -SHRA OVC060 TEMPO 2401/2404 4SM -SHRA OVC035 FM240400 16014G20KT P6SM BKN060 FM241200 19012KT P6SM BKN035 FM241500 20011KT P6SM BKN025
NOTAMs
Click for the latest NOTAMs
NOTAMs are issued by the DoD/FAA and will open in a separate window not controlled by AirNav.

 

 
 

Would you like to see your business listed on this page?

 If your business provides an interesting product or service to pilots, flight crews, aircraft, or users of the Buffalo Municipal Airport, you should consider listing it here.  To start the listing process, click on the button below
 
Add a business
 

Other Pages about Buffalo Municipal Airport

www.buffalomissouri.us/...
 
Update a link
 
Copyright © AirNav, LLC. All rights reserved. Privacy Policy  Contact